Time;durP1;ratioP1;P1;durP2;ratioP2;P2;SDS_P1;SDS_P2;PMS_P1;PMS_P2;Temp;Humidity;BMP_temperature;BMP_pressure;BME280_temperature;BME280_humidity;BME280_pressure;Samples;Min_cycle;Max_cycle;Signal;HPM_P1;HPM_P2
2024/02/09 00:01:14;;;;;;;24.90;5.87;;;9.00;99.90;;;;;;5050866;28;20225;-60
2024/02/09 00:03:41;;;;;;;31.53;6.80;;;9.00;99.90;;;;;;5034678;28;20188;-61
2024/02/09 00:06:06;;;;;;;37.27;6.93;;;9.00;99.90;;;;;;5019726;28;20216;-62
2024/02/09 00:08:32;;;;;;;22.93;5.57;;;9.00;99.90;;;;;;5039728;28;20218;-61
2024/02/09 00:10:58;;;;;;;25.07;6.10;;;8.90;99.90;;;;;;5025597;28;20203;-62
2024/02/09 00:13:24;;;;;;;14.70;5.63;;;8.90;99.90;;;;;;5034077;28;20565;-58
2024/02/09 00:15:49;;;;;;;21.50;6.27;;;8.90;99.90;;;;;;5033458;28;20192;-61
2024/02/09 00:18:16;;;;;;;23.70;5.83;;;8.90;99.90;;;;;;5042158;28;20199;-61
2024/02/09 00:20:47;;;;;;;27.27;6.23;;;8.90;99.90;;;;;;5018841;28;20208;-60
2024/02/09 00:23:13;;;;;;;33.30;6.23;;;8.90;99.90;;;;;;5034418;28;20660;-61
2024/02/09 00:25:39;;;;;;;21.90;6.43;;;8.90;99.90;;;;;;5026673;28;20542;-62
2024/02/09 00:28:05;;;;;;;22.33;5.40;;;8.90;99.90;;;;;;5015726;28;20187;-62
2024/02/09 00:30:32;;;;;;;20.40;5.23;;;9.00;99.90;;;;;;5043912;28;20645;-62
2024/02/09 00:32:58;;;;;;;24.20;5.73;;;9.00;99.90;;;;;;5031424;28;20188;-61
2024/02/09 00:35:27;;;;;;;18.70;5.47;;;9.00;99.90;;;;;;5028609;28;20184;-61
2024/02/09 00:37:55;;;;;;;21.80;5.73;;;9.00;99.90;;;;;;5047136;28;20187;-61
2024/02/09 00:40:23;;;;;;;25.20;6.37;;;8.90;99.90;;;;;;5033730;28;20569;-62
2024/02/09 00:42:51;;;;;;;19.27;6.53;;;8.80;99.90;;;;;;5049128;28;20609;-62
2024/02/09 00:45:16;;;;;;;23.77;5.77;;;8.80;99.90;;;;;;5022515;28;20211;-61
2024/02/09 00:47:43;;;;;;;27.00;5.50;;;8.90;99.90;;;;;;5021491;28;20222;-61
2024/02/09 00:50:10;;;;;;;19.67;5.73;;;8.90;99.90;;;;;;5039038;28;20215;-60
2024/02/09 00:52:35;;;;;;;18.87;5.77;;;8.80;99.90;;;;;;5042076;28;20191;-61
2024/02/09 00:55:01;;;;;;;23.60;5.13;;;8.80;99.90;;;;;;5041315;28;20611;-61
2024/02/09 00:57:26;;;;;;;23.23;4.80;;;8.80;99.90;;;;;;5035544;28;20611;-61
2024/02/09 00:59:52;;;;;;;31.13;5.43;;;8.80;99.90;;;;;;5030342;28;20219;-62
2024/02/09 01:02:19;;;;;;;23.50;5.67;;;8.80;99.90;;;;;;5033309;28;20184;-61
2024/02/09 01:04:45;;;;;;;20.97;6.30;;;8.80;99.90;;;;;;5042520;28;20179;-62
2024/02/09 01:07:11;;;;;;;25.37;5.90;;;8.80;99.90;;;;;;5032618;28;20705;-62
2024/02/09 01:09:37;;;;;;;15.07;5.33;;;8.80;99.90;;;;;;5049709;28;20285;-62
2024/02/09 02:45:01;;;;;;;17.43;6.10;;;8.60;99.90;;;;;;5040086;28;20208;-60
2024/02/09 02:47:26;;;;;;;26.70;6.80;;;8.70;99.90;;;;;;5030257;28;20681;-61
2024/02/09 03:06:16;;;;;;;22.17;6.10;;;8.50;99.90;;;;;;5027697;28;20191;-62
2024/02/09 03:08:42;;;;;;;24.60;5.97;;;8.50;99.90;;;;;;5020059;28;20184;-61
2024/02/09 03:11:08;;;;;;;15.13;5.17;;;8.40;99.90;;;;;;5030621;28;20676;-62
2024/02/09 03:13:34;;;;;;;22.53;5.53;;;8.40;99.90;;;;;;5031641;28;20200;-62
2024/02/09 03:16:00;;;;;;;23.27;5.20;;;8.40;99.90;;;;;;5032087;28;20667;-62
2024/02/09 03:18:26;;;;;;;17.87;4.57;;;8.50;99.90;;;;;;5045963;28;20226;-61
2024/02/09 03:20:55;;;;;;;27.20;7.70;;;8.50;99.90;;;;;;5038814;28;20282;-61
2024/02/09 03:23:20;;;;;;;24.07;6.60;;;8.50;99.90;;;;;;5019375;28;20176;-61
2024/02/09 03:25:48;;;;;;;22.43;6.73;;;8.60;99.90;;;;;;5018913;28;20171;-62
2024/02/09 03:28:14;;;;;;;21.17;6.33;;;8.60;99.90;;;;;;5022480;28;20210;-62
2024/02/09 03:30:40;;;;;;;18.00;6.03;;;8.50;99.90;;;;;;5004732;28;20206;-61
2024/02/09 03:33:06;;;;;;;18.00;6.00;;;8.50;99.90;;;;;;5033035;28;20188;-62
2024/02/09 03:35:31;;;;;;;14.93;4.23;;;8.50;99.90;;;;;;5033948;28;20187;-62
2024/02/09 03:37:58;;;;;;;14.47;3.90;;;8.50;99.90;;;;;;5031203;28;20190;-62
2024/02/09 03:40:23;;;;;;;24.60;4.90;;;8.60;99.90;;;;;;5023593;28;20208;-62
2024/02/09 03:42:49;;;;;;;20.40;5.53;;;8.60;99.90;;;;;;5022483;28;20255;-62
2024/02/09 03:45:14;;;;;;;18.60;5.37;;;8.60;99.90;;;;;;5019241;28;20595;-60
2024/02/09 03:47:40;;;;;;;15.73;5.03;;;8.60;99.90;;;;;;5040307;28;20258;-62
2024/02/09 03:50:06;;;;;;;18.27;5.10;;;8.60;99.90;;;;;;5039896;28;20211;-62
2024/02/09 03:52:32;;;;;;;17.70;4.73;;;8.60;99.90;;;;;;5016555;28;20592;-62
2024/02/09 03:54:57;;;;;;;13.93;4.97;;;8.70;99.90;;;;;;5029025;28;20184;-62
2024/02/09 03:57:25;;;;;;;19.13;4.80;;;8.70;99.90;;;;;;5028811;28;20666;-62
2024/02/09 03:59:51;;;;;;;18.33;5.43;;;8.80;99.90;;;;;;5038542;28;20244;-62
2024/02/09 04:02:18;;;;;;;11.33;4.10;;;8.80;99.90;;;;;;5034407;28;20259;-62
2024/02/09 04:04:44;;;;;;;19.27;4.03;;;8.80;99.90;;;;;;5018824;28;20641;-62
2024/02/09 04:07:09;;;;;;;14.07;4.67;;;8.80;99.90;;;;;;5028910;28;20280;-62
2024/02/09 04:09:36;;;;;;;13.00;4.80;;;8.80;99.90;;;;;;5038772;28;20294;-61
2024/02/09 04:12:02;;;;;;;13.50;4.70;;;8.80;99.90;;;;;;5031902;28;20184;-62
2024/02/09 04:14:28;;;;;;;19.33;4.70;;;8.80;99.90;;;;;;5049865;28;20187;-60
2024/02/09 04:16:55;;;;;;;15.33;4.23;;;8.90;99.90;;;;;;5041242;28;20278;-61
2024/02/09 04:19:21;;;;;;;16.90;5.13;;;8.90;99.90;;;;;;5041124;28;20235;-61
2024/02/09 04:21:47;;;;;;;19.53;4.70;;;8.90;99.90;;;;;;5042450;28;20182;-62
2024/02/09 04:24:23;;;;;;;12.77;4.33;;;8.80;99.90;;;;;;5034018;28;20189;-62
2024/02/09 04:26:49;;;;;;;10.50;4.20;;;8.90;99.90;;;;;;5041234;28;20244;-62
2024/02/09 04:29:15;;;;;;;13.43;4.50;;;8.80;99.90;;;;;;5050046;28;20774;-62
2024/02/09 04:31:43;;;;;;;18.70;5.53;;;8.80;99.90;;;;;;5033493;28;20270;-61
2024/02/09 04:34:12;;;;;;;15.50;4.60;;;8.80;99.90;;;;;;5041549;28;20213;-62
2024/02/09 04:36:38;;;;;;;11.07;4.30;;;8.80;99.90;;;;;;5019387;28;20271;-61
2024/02/09 04:39:08;;;;;;;16.43;4.83;;;8.90;99.90;;;;;;5030415;28;20226;-61
2024/02/09 04:41:35;;;;;;;18.83;4.93;;;8.90;99.90;;;;;;5049549;28;20650;-61
2024/02/09 04:44:01;;;;;;;12.47;4.83;;;8.90;99.90;;;;;;5016852;28;20623;-61
2024/02/09 04:46:26;;;;;;;10.50;4.40;;;8.90;99.90;;;;;;5027591;28;20237;-61
2024/02/09 04:48:52;;;;;;;17.47;4.77;;;8.90;99.90;;;;;;5029240;28;20187;-60
2024/02/09 04:51:17;;;;;;;11.40;4.37;;;8.90;99.90;;;;;;5013715;28;20718;-61
2024/02/09 04:53:43;;;;;;;12.67;4.00;;;8.80;99.90;;;;;;5028675;28;20681;-61
2024/02/09 04:56:09;;;;;;;12.63;4.00;;;8.90;99.90;;;;;;5021962;28;20196;-61
2024/02/09 04:58:36;;;;;;;15.27;3.57;;;8.80;99.90;;;;;;5026649;28;20200;-61
2024/02/09 05:01:02;;;;;;;13.50;3.50;;;8.90;99.90;;;;;;5039950;28;20577;-60
2024/02/09 05:03:27;;;;;;;7.90;3.00;;;9.00;99.90;;;;;;5047520;28;20186;-62
2024/02/09 05:05:53;;;;;;;4.93;2.23;;;8.90;99.90;;;;;;5036673;28;20644;-62
2024/02/09 05:08:18;;;;;;;6.00;2.50;;;8.90;99.90;;;;;;5053437;28;20580;-62
2024/02/09 05:10:46;;;;;;;4.80;2.57;;;8.90;99.90;;;;;;5037952;28;20587;-61
2024/02/09 05:13:12;;;;;;;11.93;2.20;;;8.90;99.90;;;;;;5030259;28;20188;-61
2024/02/09 05:15:37;;;;;;;9.10;2.20;;;8.90;99.90;;;;;;5034777;28;20195;-61
2024/02/09 05:18:03;;;;;;;4.87;2.13;;;8.90;99.90;;;;;;5024672;28;20673;-61
2024/02/09 05:20:29;;;;;;;5.80;2.53;;;8.90;99.90;;;;;;5040402;28;20741;-62
2024/02/09 05:22:54;;;;;;;8.37;2.00;;;8.90;99.90;;;;;;5027840;28;20191;-60
2024/02/09 05:25:23;;;;;;;6.53;2.20;;;9.00;99.90;;;;;;5033293;28;20266;-62
2024/02/09 05:27:48;;;;;;;11.97;2.90;;;9.00;99.90;;;;;;5016557;28;20189;-62
2024/02/09 05:30:14;;;;;;;10.40;2.60;;;8.90;99.90;;;;;;5032858;28;20214;-61
2024/02/09 05:32:41;;;;;;;6.90;2.17;;;8.90;99.90;;;;;;5032055;28;20187;-62
2024/02/09 05:35:07;;;;;;;5.23;1.20;;;8.90;99.90;;;;;;5052929;28;20568;-61
2024/02/09 05:37:33;;;;;;;8.10;2.00;;;8.90;99.90;;;;;;5040720;28;20184;-61
2024/02/09 05:40:00;;;;;;;4.10;1.27;;;8.90;99.90;;;;;;5048077;28;20210;-61
2024/02/09 05:42:26;;;;;;;8.10;1.73;;;8.90;99.90;;;;;;5053106;28;20203;-61
2024/02/09 05:44:51;;;;;;;2.17;1.40;;;9.00;99.90;;;;;;5052615;28;20179;-61
2024/02/09 05:47:20;;;;;;;5.43;2.10;;;9.00;99.90;;;;;;5029278;28;20276;-60
2024/02/09 05:49:47;;;;;;;5.03;1.60;;;9.00;99.90;;;;;;5020907;28;20263;-60
2024/02/09 05:52:12;;;;;;;7.57;2.50;;;9.10;99.90;;;;;;5007294;28;20250;-61
2024/02/09 05:54:38;;;;;;;6.67;2.17;;;9.10;99.90;;;;;;5047423;28;20627;-61
2024/02/09 05:57:04;;;;;;;10.37;2.57;;;9.00;99.90;;;;;;5039840;28;20567;-62
2024/02/09 05:59:30;;;;;;;13.33;2.80;;;9.10;99.90;;;;;;5040132;28;20215;-60
2024/02/09 06:01:55;;;;;;;4.60;2.40;;;9.10;99.90;;;;;;5035768;28;20241;-60
2024/02/09 06:04:24;;;;;;;8.37;1.73;;;9.10;99.90;;;;;;5048235;28;20183;-61
2024/02/09 06:06:49;;;;;;;4.90;2.00;;;9.10;99.90;;;;;;5048207;28;20183;-61
2024/02/09 06:09:15;;;;;;;8.90;1.97;;;9.10;99.90;;;;;;5051574;28;20240;-62
2024/02/09 06:11:40;;;;;;;7.13;2.33;;;9.10;99.90;;;;;;5030518;28;20259;-62
2024/02/09 06:14:09;;;;;;;5.70;2.13;;;9.10;99.90;;;;;;5047685;28;20229;-60
2024/02/09 06:16:34;;;;;;;10.40;2.33;;;9.10;99.90;;;;;;5023883;28;20241;-61
2024/02/09 06:19:00;;;;;;;7.50;2.10;;;9.10;99.90;;;;;;5039185;28;20211;-61
2024/02/09 06:21:25;;;;;;;7.00;2.17;;;9.10;99.90;;;;;;5029072;28;20664;-60
2024/02/09 06:23:51;;;;;;;4.93;2.10;;;9.00;99.90;;;;;;5012387;28;20219;-60
2024/02/09 06:26:17;;;;;;;5.07;2.10;;;8.90;99.90;;;;;;5027131;28;20190;-62
2024/02/09 06:28:46;;;;;;;7.87;2.40;;;8.90;99.90;;;;;;5029720;28;20732;-61
2024/02/09 06:31:15;;;;;;;6.67;2.70;;;8.90;99.90;;;;;;5031351;28;20212;-62
2024/02/09 06:33:43;;;;;;;8.40;2.47;;;9.00;99.90;;;;;;5031006;28;20195;-62
2024/02/09 06:36:10;;;;;;;8.97;2.60;;;9.00;99.90;;;;;;5038869;28;20187;-60
2024/02/09 06:38:36;;;;;;;3.53;2.33;;;9.00;99.90;;;;;;5034505;28;20644;-61
2024/02/09 06:41:02;;;;;;;9.20;2.90;;;9.10;99.90;;;;;;5022485;28;20763;-61
2024/02/09 06:43:27;;;;;;;5.63;2.50;;;9.10;99.90;;;;;;5020311;28;20211;-61
2024/02/09 06:45:53;;;;;;;6.23;2.63;;;9.00;99.90;;;;;;5028489;28;20207;-61
2024/02/09 06:48:22;;;;;;;8.37;2.53;;;9.00;99.90;;;;;;5036271;28;20571;-61
2024/02/09 06:50:48;;;;;;;9.53;2.93;;;9.00;99.90;;;;;;5027773;28;20291;-61
2024/02/09 06:53:15;;;;;;;8.13;3.30;;;9.00;99.90;;;;;;5023614;28;20283;-61
2024/02/09 06:55:43;;;;;;;10.13;3.10;;;9.00;99.90;;;;;;5046710;28;20183;-61
2024/02/09 06:58:09;;;;;;;5.37;2.50;;;9.10;99.90;;;;;;5037915;28;20270;-60
2024/02/09 07:00:36;;;;;;;9.20;2.77;;;9.00;99.90;;;;;;5012045;28;20364;-61
2024/02/09 07:03:03;;;;;;;10.20;4.13;;;9.00;99.90;;;;;;5021461;28;20675;-61
2024/02/09 07:05:29;;;;;;;11.83;3.67;;;9.10;99.90;;;;;;5036399;28;20191;-60
2024/02/09 07:07:55;;;;;;;9.57;4.03;;;9.10;99.90;;;;;;5041957;28;20183;-61
2024/02/09 07:10:24;;;;;;;9.70;3.10;;;9.00;99.90;;;;;;5031853;28;20241;-62
2024/02/09 07:12:51;;;;;;;11.10;3.17;;;9.10;99.90;;;;;;5039517;28;20179;-60
2024/02/09 07:15:17;;;;;;;10.87;3.30;;;9.10;99.90;;;;;;5023068;28;20651;-60
2024/02/09 07:17:46;;;;;;;11.30;3.73;;;9.10;99.90;;;;;;5029635;28;20217;-61
2024/02/09 07:20:14;;;;;;;8.33;2.80;;;9.10;99.90;;;;;;5050175;28;20225;-61
2024/02/09 07:22:40;;;;;;;9.23;3.10;;;9.00;99.90;;;;;;5035161;28;20196;-60
2024/02/09 07:25:09;;;;;;;3.77;1.83;;;9.10;99.90;;;;;;5031790;28;20241;-62
2024/02/09 07:27:34;;;;;;;11.23;3.47;;;9.20;99.90;;;;;;5048152;28;20426;-60
2024/02/09 07:30:00;;;;;;;5.60;2.93;;;9.20;99.90;;;;;;5013325;28;20220;-61
2024/02/09 07:32:26;;;;;;;5.93;2.37;;;9.20;99.90;;;;;;5027397;28;20188;-62
2024/02/09 07:34:54;;;;;;;7.77;2.73;;;9.30;99.90;;;;;;5027109;28;20188;-62
2024/02/09 07:37:20;;;;;;;8.30;2.87;;;9.30;99.90;;;;;;5030681;28;20176;-61
2024/02/09 07:39:46;;;;;;;3.60;1.83;;;9.30;99.90;;;;;;5023202;28;20645;-62
2024/02/09 07:42:12;;;;;;;11.63;3.80;;;9.30;99.90;;;;;;5048970;28;20599;-62
2024/02/09 07:44:39;;;;;;;5.30;2.30;;;9.30;99.90;;;;;;5041909;28;20197;-61
2024/02/09 07:47:05;;;;;;;5.47;2.60;;;9.30;99.90;;;;;;5045653;28;20179;-62
2024/02/09 07:49:32;;;;;;;8.33;2.00;;;9.30;99.90;;;;;;5019158;28;20568;-62
2024/02/09 07:51:59;;;;;;;6.57;2.13;;;9.40;99.90;;;;;;5044467;28;20187;-62
2024/02/09 07:54:26;;;;;;;4.57;1.97;;;9.40;99.90;;;;;;5050525;28;20266;-62
2024/02/09 07:56:52;;;;;;;8.70;2.70;;;9.50;99.90;;;;;;5033462;28;20183;-62
2024/02/09 07:59:18;;;;;;;8.27;2.50;;;9.60;99.90;;;;;;5027325;28;20208;-62
2024/02/09 08:01:44;;;;;;;6.50;2.33;;;9.60;99.90;;;;;;5024746;28;20612;-62
2024/02/09 08:04:10;;;;;;;6.27;2.63;;;9.50;99.90;;;;;;5010796;28;20195;-61
2024/02/09 08:06:38;;;;;;;3.60;2.27;;;9.60;99.90;;;;;;5026209;28;20242;-62
2024/02/09 08:09:04;;;;;;;5.83;1.97;;;9.70;99.90;;;;;;5037593;28;20279;-62
2024/02/09 08:11:29;;;;;;;4.30;2.00;;;9.80;99.90;;;;;;5040048;28;20675;-62
2024/02/09 08:13:57;;;;;;;6.00;2.47;;;9.70;99.90;;;;;;5026805;28;20171;-61
2024/02/09 08:16:23;;;;;;;6.57;2.37;;;9.70;99.90;;;;;;5025283;28;20171;-62
2024/02/09 08:18:50;;;;;;;4.43;2.50;;;9.70;99.90;;;;;;5034677;28;20208;-61
2024/02/09 08:21:17;;;;;;;25.97;10.50;;;9.90;99.90;;;;;;5029799;28;20199;-60
2024/02/09 08:23:43;;;;;;;3.80;2.30;;;9.90;99.90;;;;;;5045331;28;20639;-61
2024/02/09 08:26:10;;;;;;;9.40;2.13;;;10.00;99.90;;;;;;5030733;28;20256;-61
2024/02/09 08:28:47;;;;;;;5.53;2.10;;;9.90;99.90;;;;;;5024298;28;20191;-60
2024/02/09 08:31:16;;;;;;;2.70;2.00;;;9.90;99.90;;;;;;5026634;28;20686;-62
2024/02/09 08:33:51;;;;;;;5.63;2.37;;;10.00;99.90;;;;;;5027045;28;20184;-61
2024/02/09 08:36:21;;;;;;;10.27;2.60;;;10.00;99.90;;;;;;5035426;28;20183;-61
2024/02/09 08:38:47;;;;;;;5.73;2.27;;;10.10;99.90;;;;;;5030248;28;20215;-60
2024/02/09 08:41:12;;;;;;;5.73;2.67;;;10.20;99.90;;;;;;5020912;28;20216;-59
2024/02/09 08:43:41;;;;;;;8.30;2.80;;;10.20;99.90;;;;;;5028946;28;20651;-61
2024/02/09 08:46:07;;;;;;;4.40;2.43;;;10.20;99.90;;;;;;5037999;28;20195;-59
2024/02/09 08:48:33;;;;;;;10.13;2.77;;;10.20;99.90;;;;;;5042340;28;20530;-59
2024/02/09 08:50:58;;;;;;;7.40;3.20;;;10.20;99.90;;;;;;5049622;28;20610;-57
2024/02/09 08:53:24;;;;;;;6.27;3.20;;;10.20;99.90;;;;;;5023047;28;20203;-59
2024/02/09 08:55:50;;;;;;;15.80;6.17;;;10.10;99.90;;;;;;5024298;28;20784;-60
2024/02/09 08:58:19;;;;;;;9.50;3.33;;;10.10;99.90;;;;;;5048854;28;20565;-60
2024/02/09 09:00:45;;;;;;;7.10;3.20;;;10.10;99.90;;;;;;5041393;28;20202;-60
2024/02/09 09:03:10;;;;;;;8.80;3.10;;;10.10;99.90;;;;;;5029025;28;20188;-61
2024/02/09 09:05:36;;;;;;;10.30;3.20;;;10.20;99.90;;;;;;5033165;28;20690;-59
2024/02/09 09:08:02;;;;;;;10.63;4.43;;;10.20;99.90;;;;;;5023182;28;20299;-60
2024/02/09 09:10:28;;;;;;;11.73;4.40;;;10.20;99.90;;;;;;5051172;28;20222;-59
2024/02/09 09:12:54;;;;;;;8.40;4.07;;;10.20;99.90;;;;;;5032886;28;20638;-59
2024/02/09 09:15:19;;;;;;;13.83;4.37;;;10.20;99.90;;;;;;5021520;28;20302;-61
2024/02/09 09:17:48;;;;;;;12.67;4.80;;;10.20;99.90;;;;;;5014643;28;20275;-60
2024/02/09 09:20:14;;;;;;;15.83;6.03;;;10.10;99.90;;;;;;5034586;28;20224;-58
2024/02/09 09:22:41;;;;;;;13.23;4.37;;;10.10;99.90;;;;;;5031371;28;20540;-58
2024/02/09 09:25:07;;;;;;;15.07;4.97;;;10.10;99.90;;;;;;5038300;28;20294;-59
2024/02/09 09:27:34;;;;;;;15.83;8.43;;;10.10;99.90;;;;;;5031508;28;20179;-59
2024/02/09 09:30:01;;;;;;;13.93;5.37;;;10.10;99.90;;;;;;5045720;28;20211;-59
2024/02/09 09:32:27;;;;;;;20.27;8.70;;;10.10;99.90;;;;;;5017200;28;20208;-60
2024/02/09 09:34:52;;;;;;;12.87;6.03;;;10.20;99.90;;;;;;5026232;28;20665;-59
2024/02/09 09:37:18;;;;;;;11.47;5.60;;;10.20;99.90;;;;;;5034438;28;20184;-60
2024/02/09 09:39:46;;;;;;;17.37;7.47;;;10.10;99.90;;;;;;5015276;28;20253;-60
2024/02/09 09:42:12;;;;;;;16.63;5.90;;;10.20;99.90;;;;;;5043400;28;20236;-58
2024/02/09 09:44:37;;;;;;;14.13;7.53;;;10.30;99.90;;;;;;5019522;28;20196;-60
2024/02/09 09:47:06;;;;;;;12.23;5.13;;;10.30;99.90;;;;;;5037699;28;20218;-59
2024/02/09 09:49:36;;;;;;;12.33;6.93;;;10.40;99.90;;;;;;5040896;28;20263;-59
2024/02/09 09:52:02;;;;;;;13.33;6.43;;;10.40;99.90;;;;;;5037485;28;20209;-60
2024/02/09 09:54:30;;;;;;;13.23;5.60;;;10.50;99.90;;;;;;5044522;28;20188;-60
2024/02/09 09:56:59;;;;;;;23.60;10.47;;;10.50;99.90;;;;;;5030029;28;20325;-60
2024/02/09 09:59:25;;;;;;;13.37;6.63;;;10.40;99.90;;;;;;5040484;28;20592;-59
2024/02/09 10:01:50;;;;;;;13.33;7.60;;;10.40;99.90;;;;;;5017201;28;20168;-60
2024/02/09 10:04:16;;;;;;;13.17;6.13;;;10.30;99.90;;;;;;5049184;28;20524;-60
2024/02/09 10:06:42;;;;;;;17.20;6.60;;;10.40;99.90;;;;;;5031517;28;20565;-59
2024/02/09 10:09:12;;;;;;;42.53;29.50;;;10.50;99.90;;;;;;5037208;28;20190;-60
2024/02/09 10:11:40;;;;;;;15.37;7.87;;;10.50;99.90;;;;;;5041575;28;20176;-60
2024/02/09 10:14:14;;;;;;;12.00;6.40;;;10.50;99.90;;;;;;5039722;28;20233;-59
2024/02/09 10:16:41;;;;;;;19.10;6.20;;;10.40;99.90;;;;;;5047921;28;20210;-59
2024/02/09 10:19:07;;;;;;;21.53;6.83;;;10.40;99.90;;;;;;5028846;28;20572;-59
2024/02/09 10:21:34;;;;;;;13.27;6.93;;;10.50;99.90;;;;;;5045394;28;20190;-60
2024/02/09 10:24:00;;;;;;;14.53;6.03;;;10.40;99.90;;;;;;5035931;28;20968;-60
2024/02/09 10:26:26;;;;;;;19.73;6.07;;;10.50;99.90;;;;;;5028652;28;20289;-60
2024/02/09 10:28:52;;;;;;;16.10;7.57;;;10.50;99.90;;;;;;5029363;28;20204;-60
2024/02/09 10:31:20;;;;;;;19.23;7.13;;;10.50;99.90;;;;;;5043796;28;20282;-60
2024/02/09 10:33:48;;;;;;;37.43;18.70;;;10.50;99.90;;;;;;5052689;28;20269;-61
2024/02/09 10:36:14;;;;;;;17.70;8.67;;;10.60;99.90;;;;;;5027323;28;20670;-60
2024/02/09 10:38:40;;;;;;;20.37;8.87;;;10.60;99.90;;;;;;5038129;28;20298;-60
2024/02/09 10:41:07;;;;;;;18.63;8.80;;;10.60;99.90;;;;;;5032632;28;20206;-60
2024/02/09 10:43:35;;;;;;;18.60;8.67;;;10.60;99.90;;;;;;5036953;28;20191;-59
2024/02/09 10:46:01;;;;;;;14.90;8.60;;;10.60;99.90;;;;;;5025836;28;20181;-60
2024/02/09 10:48:35;;;;;;;18.47;8.20;;;10.60;99.90;;;;;;5044615;28;20187;-59
2024/02/09 10:51:05;;;;;;;19.33;8.40;;;10.60;99.90;;;;;;5042215;28;20222;-59
2024/02/09 10:53:44;;;;;;;20.90;9.50;;;10.60;99.90;;;;;;5039031;28;20753;-60
2024/02/09 10:56:13;;;;;;;19.20;8.77;;;10.70;99.90;;;;;;5022280;28;20556;-60
2024/02/09 10:58:41;;;;;;;20.43;8.40;;;10.70;99.90;;;;;;5022916;28;20247;-60
2024/02/09 11:01:07;;;;;;;18.77;7.33;;;10.60;99.90;;;;;;5043714;28;20261;-60
2024/02/09 11:03:33;;;;;;;24.43;8.17;;;10.70;99.90;;;;;;5052609;28;20171;-60
2024/02/09 11:06:01;;;;;;;15.50;7.30;;;10.80;99.90;;;;;;5018612;28;20602;-59
2024/02/09 11:08:29;;;;;;;17.43;7.03;;;10.90;99.90;;;;;;5025658;28;20233;-60
2024/02/09 11:11:02;;;;;;;15.10;6.93;;;11.00;99.90;;;;;;5032383;28;20281;-59
2024/02/09 11:13:27;;;;;;;23.30;7.70;;;11.10;99.90;;;;;;5016851;28;20175;-60
2024/02/09 11:16:02;;;;;;;18.53;7.20;;;11.20;99.90;;;;;;5040663;28;20180;-66
2024/02/09 11:18:32;;;;;;;14.87;7.37;;;11.30;99.90;;;;;;5040488;28;20671;-59
2024/02/09 11:21:04;;;;;;;18.47;8.40;;;11.30;99.90;;;;;;5015651;28;20204;-57
2024/02/09 11:23:40;;;;;;;15.27;6.30;;;11.40;99.90;;;;;;5012709;28;20595;-57
2024/02/09 11:26:13;;;;;;;29.33;18.53;;;11.40;99.90;;;;;;5030914;28;20643;-59
2024/02/09 11:28:39;;;;;;;15.67;6.67;;;11.40;99.90;;;;;;5025311;28;20184;-60
2024/02/09 11:31:12;;;;;;;17.20;5.83;;;11.30;99.90;;;;;;5026379;28;20858;-60
2024/02/09 11:33:41;;;;;;;15.43;5.80;;;11.30;99.90;;;;;;5026880;28;20188;-61
2024/02/09 11:36:07;;;;;;;16.37;5.50;;;11.30;99.90;;;;;;5027074;28;20184;-58
2024/02/09 11:38:33;;;;;;;16.27;5.97;;;11.40;99.90;;;;;;5033775;28;20191;-59
2024/02/09 11:40:59;;;;;;;96.33;28.80;;;11.30;99.90;;;;;;5014979;28;20971;-59
2024/02/09 11:43:25;;;;;;;15.40;6.43;;;11.30;99.90;;;;;;5021199;28;20286;-60
2024/02/09 11:45:53;;;;;;;9.87;5.70;;;11.20;99.90;;;;;;5030892;28;20174;-60
2024/02/09 11:48:21;;;;;;;20.10;6.20;;;11.20;99.90;;;;;;5023562;28;20325;-62
2024/02/09 11:50:46;;;;;;;15.33;5.57;;;11.30;99.90;;;;;;5038828;28;20207;-62
2024/02/09 11:53:12;;;;;;;12.73;5.63;;;11.30;99.90;;;;;;5052572;28;20180;-59
2024/02/09 11:55:39;;;;;;;13.13;6.03;;;11.30;99.90;;;;;;5030506;28;20184;-60
2024/02/09 11:58:07;;;;;;;13.50;5.30;;;11.30;99.90;;;;;;5023071;28;20189;-61
2024/02/09 12:00:32;;;;;;;16.60;5.40;;;11.20;99.90;;;;;;5017844;28;20209;-61
2024/02/09 12:02:59;;;;;;;15.60;5.33;;;11.20;99.90;;;;;;5049512;28;20337;-61
2024/02/09 12:05:26;;;;;;;16.80;6.07;;;11.10;99.90;;;;;;5036813;28;20237;-59
2024/02/09 12:07:52;;;;;;;22.07;6.10;;;11.20;99.90;;;;;;5052742;28;20209;-61
2024/02/09 12:10:19;;;;;;;14.63;6.10;;;11.10;99.90;;;;;;5034948;28;20264;-60
2024/02/09 12:12:48;;;;;;;15.67;6.37;;;11.10;99.90;;;;;;5021849;28;20643;-59
2024/02/09 12:15:14;;;;;;;15.73;6.10;;;11.20;99.90;;;;;;5040601;28;20175;-64
2024/02/09 12:17:39;;;;;;;15.07;6.87;;;11.10;99.90;;;;;;5029974;28;20679;-60
2024/02/09 12:20:10;;;;;;;12.00;5.07;;;11.10;99.90;;;;;;5035463;28;20210;-61
2024/02/09 12:22:39;;;;;;;17.17;5.50;;;11.10;99.90;;;;;;5028394;28;20176;-60
2024/02/09 12:25:05;;;;;;;16.57;6.90;;;11.20;99.90;;;;;;5029174;28;20190;-60
2024/02/09 12:27:31;;;;;;;12.93;6.33;;;11.10;99.90;;;;;;5038800;28;20542;-61
2024/02/09 12:29:57;;;;;;;15.23;5.60;;;11.00;99.90;;;;;;5039729;28;20215;-61
2024/02/09 12:32:22;;;;;;;16.67;5.33;;;11.00;99.90;;;;;;5027657;28;20559;-61
2024/02/09 12:34:51;;;;;;;14.33;5.97;;;11.00;99.90;;;;;;5033714;28;20190;-62
2024/02/09 12:37:17;;;;;;;13.10;5.70;;;10.90;99.90;;;;;;5039196;28;20575;-58
2024/02/09 12:39:55;;;;;;;8.77;4.90;;;10.90;99.90;;;;;;5038829;28;20710;-59
2024/02/09 12:42:22;;;;;;;16.93;6.70;;;10.80;99.90;;;;;;5013660;28;20668;-59
2024/02/09 12:44:51;;;;;;;19.73;6.87;;;10.80;99.90;;;;;;5030872;28;20182;-60
2024/02/09 12:47:17;;;;;;;16.77;6.80;;;10.80;99.90;;;;;;5038638;28;20176;-60
2024/02/09 12:49:43;;;;;;;19.00;9.33;;;10.90;99.90;;;;;;5022744;28;20302;-61
2024/02/09 12:52:14;;;;;;;16.67;8.70;;;10.90;99.90;;;;;;5010034;28;20194;-59
2024/02/09 12:54:43;;;;;;;17.80;6.90;;;10.90;99.90;;;;;;5016930;28;20180;-61
2024/02/09 12:57:09;;;;;;;21.40;7.90;;;10.90;99.90;;;;;;5028453;28;20274;-60
2024/02/09 12:59:35;;;;;;;18.87;7.70;;;11.00;99.90;;;;;;5027804;28;20215;-61
2024/02/09 13:02:04;;;;;;;17.93;7.03;;;11.00;99.90;;;;;;5027981;28;20184;-60
2024/02/09 13:04:31;;;;;;;12.83;6.17;;;11.10;99.90;;;;;;5008271;28;20656;-62
2024/02/09 13:06:56;;;;;;;14.77;6.07;;;11.00;99.90;;;;;;5036072;28;20172;-62
2024/02/09 13:09:22;;;;;;;17.83;6.70;;;11.10;99.90;;;;;;5026493;28;20293;-58
2024/02/09 13:11:49;;;;;;;13.30;5.73;;;11.10;99.90;;;;;;5045120;28;20298;-59
2024/02/09 13:14:17;;;;;;;13.83;6.00;;;11.10;99.90;;;;;;5041051;28;20245;-60
2024/02/09 13:16:42;;;;;;;13.70;6.43;;;11.10;99.90;;;;;;5016178;28;20290;-59
2024/02/09 13:19:10;;;;;;;21.47;7.27;;;11.10;99.90;;;;;;5029850;28;20721;-59
2024/02/09 13:21:35;;;;;;;12.33;6.53;;;11.10;99.90;;;;;;5022070;28;20192;-59
2024/02/09 13:24:06;;;;;;;19.53;6.60;;;11.20;99.90;;;;;;5031630;28;20179;-60
2024/02/09 13:26:33;;;;;;;19.50;8.00;;;11.20;99.90;;;;;;5019230;28;20571;-59
2024/02/09 13:29:01;;;;;;;18.47;7.70;;;11.20;99.90;;;;;;5042142;28;20191;-59
2024/02/09 13:31:27;;;;;;;24.90;7.60;;;11.30;99.90;;;;;;5027317;28;20203;-58
2024/02/09 13:33:52;;;;;;;18.03;7.60;;;11.40;99.90;;;;;;5026787;28;20661;-61
2024/02/09 13:36:18;;;;;;;18.17;7.70;;;11.40;99.90;;;;;;5016505;28;20209;-59
2024/02/09 13:38:44;;;;;;;20.67;7.97;;;11.50;99.90;;;;;;5048998;28;20206;-60
2024/02/09 13:41:10;;;;;;;28.23;8.07;;;11.60;99.90;;;;;;5015188;28;20215;-59
2024/02/09 13:43:36;;;;;;;21.83;8.50;;;11.70;99.90;;;;;;5033037;28;20195;-57
2024/02/09 13:46:05;;;;;;;16.77;8.40;;;11.80;99.90;;;;;;5037294;28;20237;-60
2024/02/09 13:48:31;;;;;;;17.73;7.47;;;11.60;99.90;;;;;;5045145;28;20204;-59
2024/02/09 13:50:57;;;;;;;17.13;8.30;;;11.60;99.90;;;;;;5015661;28;20246;-60
2024/02/09 13:53:23;;;;;;;17.93;8.07;;;11.60;99.90;;;;;;5054969;28;20179;-59
2024/02/09 13:55:48;;;;;;;11.17;5.00;;;11.60;99.90;;;;;;5040094;28;20271;-60
2024/02/09 13:58:14;;;;;;;20.30;5.53;;;11.50;99.90;;;;;;5043155;28;20231;-58
2024/02/09 14:00:42;;;;;;;11.77;5.30;;;11.40;99.90;;;;;;5045312;28;20820;-60
2024/02/09 14:03:10;;;;;;;20.53;8.43;;;11.50;99.90;;;;;;5050783;28;20221;-59
2024/02/09 14:05:36;;;;;;;19.60;7.03;;;11.40;99.90;;;;;;5041352;28;20622;-60
2024/02/09 14:08:04;;;;;;;22.03;7.00;;;11.50;99.90;;;;;;5053035;28;20210;-60
2024/02/09 14:10:29;;;;;;;16.73;7.30;;;11.40;99.90;;;;;;5041398;28;20838;-59
2024/02/09 14:12:55;;;;;;;14.60;6.30;;;11.50;99.90;;;;;;5025672;28;20249;-59
2024/02/09 14:15:20;;;;;;;12.77;7.03;;;11.60;99.90;;;;;;5028554;28;20211;-59
2024/02/09 14:17:46;;;;;;;16.33;8.17;;;11.60;99.90;;;;;;5053608;28;20183;-60
2024/02/09 14:20:13;;;;;;;13.90;6.43;;;11.80;99.90;;;;;;5025045;28;20268;-59
2024/02/09 14:22:40;;;;;;;12.60;5.20;;;11.80;99.90;;;;;;5013923;28;20185;-60
2024/02/09 14:25:06;;;;;;;12.50;4.80;;;11.90;99.90;;;;;;5033211;28;20447;-60
2024/02/09 14:27:32;;;;;;;22.90;10.40;;;12.00;99.90;;;;;;5047844;28;20207;-59
2024/02/09 14:29:58;;;;;;;21.93;8.80;;;12.10;99.90;;;;;;5039957;28;20261;-60
2024/02/09 14:32:25;;;;;;;15.93;6.73;;;12.20;99.90;;;;;;5023915;28;20179;-59